createdAt,value
2023-02-07T00:01:00.312Z,63.32
2023-02-07T00:04:04.467Z,63.22
2023-02-07T00:07:08.118Z,63.02
2023-02-07T00:10:11.936Z,62.84
2023-02-07T00:13:15.585Z,62.60
2023-02-07T00:16:19.426Z,62.45
2023-02-07T00:19:23.132Z,62.02
2023-02-07T00:22:26.784Z,61.87
2023-02-07T00:25:30.314Z,61.68
2023-02-07T00:28:34.280Z,61.62
2023-02-07T00:31:38.166Z,61.52
2023-02-07T00:34:43.616Z,61.47
2023-02-07T00:37:47.251Z,61.28
2023-02-07T00:40:51.776Z,61.03
2023-02-07T00:43:55.786Z,61.28
2023-02-07T00:46:59.955Z,61.14
2023-02-07T00:50:03.687Z,61.05
2023-02-07T00:53:07.243Z,61.00
2023-02-07T00:56:10.499Z,60.97
2023-02-07T00:59:14.673Z,61.07
2023-02-07T01:02:17.680Z,61.05
2023-02-07T01:05:21.642Z,61.06
2023-02-07T01:08:25.441Z,60.89
2023-02-07T01:11:29.793Z,60.66
2023-02-07T01:14:33.611Z,60.64
2023-02-07T01:17:38.272Z,60.38
2023-02-07T01:20:42.004Z,60.33
2023-02-07T01:23:46.042Z,60.13
2023-02-07T01:26:49.772Z,60.42
2023-02-07T01:29:53.472Z,60.44
2023-02-07T01:32:57.032Z,59.89
2023-02-07T01:36:01.794Z,59.92
2023-02-07T01:39:05.784Z,59.68
2023-02-07T01:42:18.640Z,59.56
2023-02-07T01:45:33.202Z,59.35
2023-02-07T01:48:37.969Z,59.20
2023-02-07T01:51:45.269Z,59.00
2023-02-07T01:54:53.174Z,58.73
2023-02-07T01:57:56.979Z,58.44
2023-02-07T02:01:05.688Z,58.07
2023-02-07T02:04:08.549Z,58.18
2023-02-07T02:07:14.778Z,57.91
2023-02-07T02:10:21.690Z,57.48
2023-02-07T02:13:59.079Z,56.83
2023-02-07T02:17:15.485Z,57.00
2023-02-07T02:20:56.482Z,56.13
2023-02-07T02:24:08.251Z,56.23
2023-02-07T02:27:24.721Z,56.26
2023-02-07T02:30:39.805Z,55.97
2023-02-07T02:34:09.050Z,55.47
2023-02-07T02:37:57.848Z,55.49
2023-02-07T02:41:11.278Z,54.75
2023-02-07T02:44:31.946Z,54.97
2023-02-07T02:47:38.385Z,55.07
2023-02-07T02:50:48.226Z,54.60
2023-02-07T02:53:57.456Z,55.09
2023-02-07T02:57:21.132Z,54.96
2023-02-07T03:00:41.726Z,54.53
2023-02-07T03:04:29.105Z,54.40
2023-02-07T03:07:58.396Z,53.25
2023-02-07T03:12:12.495Z,53.27
2023-02-07T03:15:44.435Z,52.90
2023-02-07T03:19:03.165Z,52.72
2023-02-07T03:22:17.797Z,52.17
2023-02-07T03:25:41.834Z,51.90
2023-02-07T03:28:47.102Z,51.49
2023-02-07T03:31:54.287Z,50.75
2023-02-07T03:35:23.683Z,51.27
2023-02-07T03:38:27.143Z,51.04
2023-02-07T03:41:36.390Z,50.81
2023-02-07T03:44:43.160Z,51.59
2023-02-07T03:47:47.612Z,51.41
2023-02-07T03:50:52.950Z,51.09
2023-02-07T03:53:56.630Z,50.72
2023-02-07T03:57:00.656Z,49.76
2023-02-07T04:00:06.261Z,49.56
2023-02-07T04:03:14.999Z,50.25
2023-02-07T04:06:18.048Z,49.77
2023-02-07T04:09:22.400Z,49.36
2023-02-07T04:12:26.869Z,49.78
2023-02-07T04:15:30.427Z,52.80
2023-02-07T04:18:34.640Z,50.19
2023-02-07T04:21:39.032Z,48.46
2023-02-07T04:24:42.316Z,47.29
2023-02-07T04:27:46.286Z,46.07
2023-02-07T04:30:49.585Z,45.17
2023-02-07T04:33:52.959Z,43.54
2023-02-07T04:36:56.172Z,44.19
2023-02-07T04:40:00.209Z,44.35
2023-02-07T04:43:03.460Z,43.74
2023-02-07T04:46:08.582Z,43.81
2023-02-07T04:49:12.258Z,43.90
2023-02-07T04:52:16.578Z,44.31
2023-02-07T04:55:20.106Z,44.23
2023-02-07T04:58:24.792Z,44.03
2023-02-07T05:01:28.394Z,43.73
2023-02-07T05:04:32.132Z,43.65
2023-02-07T05:07:35.502Z,44.55
2023-02-07T05:10:40.083Z,43.87
2023-02-07T05:13:43.353Z,43.07
2023-02-07T05:16:47.606Z,41.89
2023-02-07T05:19:50.958Z,40.39
2023-02-07T05:22:54.786Z,41.60
2023-02-07T05:25:58.753Z,39.73
2023-02-07T05:29:02.167Z,40.22
2023-02-07T05:32:23.540Z,41.12
2023-02-07T05:35:26.822Z,40.41
2023-02-07T05:38:30.481Z,41.09
2023-02-07T05:41:34.565Z,40.86
2023-02-07T05:44:37.736Z,40.22
2023-02-07T05:47:41.713Z,40.48
2023-02-07T05:50:45.020Z,40.83
2023-02-07T05:53:48.406Z,40.46
2023-02-07T05:56:51.983Z,40.02
2023-02-07T05:59:55.324Z,40.05
2023-02-07T06:02:59.294Z,39.73
2023-02-07T06:06:02.601Z,39.75
2023-02-07T06:09:06.699Z,39.83
2023-02-07T06:12:10.306Z,39.59
2023-02-07T06:15:13.679Z,39.50
2023-02-07T06:18:17.820Z,40.03
2023-02-07T06:21:20.955Z,39.31
2023-02-07T06:24:24.757Z,39.31
2023-02-07T06:27:27.770Z,39.49
2023-02-07T06:30:31.280Z,39.04
2023-02-07T06:33:35.676Z,39.71
2023-02-07T06:36:39.851Z,40.11
2023-02-07T06:39:43.497Z,40.33
2023-02-07T06:42:47.425Z,39.79
2023-02-07T06:45:51.609Z,39.50
2023-02-07T06:48:55.772Z,39.04
2023-02-07T06:51:59.509Z,38.24
2023-02-07T06:55:03.582Z,38.82
2023-02-07T06:58:08.622Z,37.56
2023-02-07T07:01:12.846Z,38.45
2023-02-07T07:04:16.869Z,37.11
2023-02-07T07:07:21.111Z,37.10
2023-02-07T07:10:24.942Z,36.87
2023-02-07T07:13:28.637Z,36.96
2023-02-07T07:16:35.484Z,38.26
2023-02-07T07:20:25.835Z,37.91
2023-02-07T07:23:32.774Z,38.25
2023-02-07T07:26:48.944Z,38.44
2023-02-07T07:29:52.644Z,38.01
2023-02-07T07:32:56.647Z,37.75
2023-02-07T07:36:01.565Z,38.02
2023-02-07T07:39:04.873Z,38.13
2023-02-07T07:42:07.949Z,38.82
2023-02-07T07:45:31.512Z,39.17
2023-02-07T07:48:36.155Z,39.00
2023-02-07T07:51:39.268Z,38.38
2023-02-07T07:54:42.321Z,38.35
2023-02-07T07:57:46.117Z,37.83
2023-02-07T08:00:49.821Z,38.41
2023-02-07T08:03:52.873Z,38.38
2023-02-07T08:06:56.049Z,37.99
2023-02-07T08:09:59.052Z,37.13
2023-02-07T08:13:03.093Z,37.42
2023-02-07T08:16:11.575Z,37.59
2023-02-07T08:19:15.136Z,37.99
2023-02-07T08:22:18.795Z,38.15
2023-02-07T08:25:25.140Z,38.48
2023-02-07T08:28:30.173Z,38.68
2023-02-07T08:31:34.622Z,38.03
2023-02-07T08:34:38.693Z,38.26
2023-02-07T08:37:42.222Z,39.31
2023-02-07T08:40:48.441Z,39.29
2023-02-07T08:43:53.387Z,40.19
2023-02-07T08:46:58.010Z,41.05
2023-02-07T08:50:02.817Z,41.07
2023-02-07T08:56:32.168Z,42.02
2023-02-07T08:59:36.240Z,42.19
2023-02-07T09:06:03.316Z,41.28
2023-02-07T09:09:08.677Z,41.20
2023-02-07T09:12:13.149Z,41.30
2023-02-07T09:15:19.592Z,41.01
2023-02-07T09:18:27.513Z,41.43
2023-02-07T09:21:32.866Z,41.59
2023-02-07T09:24:36.842Z,42.45
2023-02-07T09:27:40.947Z,43.29
2023-02-07T09:30:46.960Z,43.76
2023-02-07T09:33:51.423Z,44.28
2023-02-07T09:36:56.176Z,44.57
2023-02-07T09:40:00.209Z,45.17
2023-02-07T09:43:21.482Z,45.28
2023-02-07T09:46:54.715Z,45.78
2023-02-07T09:50:24.232Z,46.08
2023-02-07T09:53:41.386Z,46.58
2023-02-07T09:56:45.442Z,46.82
2023-02-07T10:00:03.130Z,47.04
2023-02-07T10:03:19.064Z,47.31
2023-02-07T10:06:29.598Z,47.52
2023-02-07T10:09:41.301Z,47.69
2023-02-07T10:12:59.859Z,47.88
2023-02-07T10:16:11.766Z,47.90
2023-02-07T10:19:30.627Z,48.03
2023-02-07T10:23:16.758Z,48.00
2023-02-07T10:26:42.617Z,48.14
2023-02-07T10:30:06.523Z,48.27
2023-02-07T10:33:20.077Z,48.60
2023-02-07T10:36:26.765Z,48.64
2023-02-07T10:39:40.444Z,48.83
2023-02-07T10:42:48.278Z,48.79
2023-02-07T10:46:00.378Z,48.97
2023-02-07T10:49:11.046Z,49.10
2023-02-07T10:52:47.950Z,49.29
2023-02-07T10:55:55.673Z,49.53
2023-02-07T10:59:01.964Z,49.87
2023-02-07T11:02:32.943Z,50.11
2023-02-07T11:05:43.292Z,50.81
2023-02-07T11:08:46.865Z,51.09
2023-02-07T11:11:52.785Z,51.78
2023-02-07T11:15:09.160Z,52.01
2023-02-07T11:18:25.004Z,51.85
2023-02-07T11:21:35.073Z,51.87
2023-02-07T11:24:39.202Z,51.98
2023-02-07T11:27:43.779Z,52.17
2023-02-07T11:30:58.769Z,52.48
2023-02-07T11:34:29.074Z,52.69
2023-02-07T11:37:39.637Z,53.16
2023-02-07T11:40:44.440Z,53.49
2023-02-07T11:44:20.185Z,53.63
2023-02-07T11:47:41.178Z,53.98
2023-02-07T11:50:48.630Z,54.52
2023-02-07T11:53:57.837Z,54.76
2023-02-07T11:57:13.027Z,55.23
2023-02-07T12:00:31.399Z,55.70
2023-02-07T12:03:47.842Z,55.99
2023-02-07T12:07:10.774Z,56.21
2023-02-07T12:10:24.816Z,56.60
2023-02-07T12:13:38.222Z,56.88
2023-02-07T12:16:49.453Z,56.96
2023-02-07T12:20:02.309Z,56.95
2023-02-07T12:23:41.357Z,57.16
2023-02-07T12:26:55.967Z,57.13
2023-02-07T12:30:15.198Z,57.36
2023-02-07T12:33:48.261Z,57.47
2023-02-07T12:36:57.072Z,57.70
2023-02-07T12:40:06.275Z,58.18
2023-02-07T12:43:36.993Z,58.27
2023-02-07T12:46:50.746Z,58.46
2023-02-07T12:50:27.948Z,58.75
2023-02-07T13:06:20.821Z,59.15
2023-02-07T13:10:16.209Z,59.11
2023-02-07T13:17:19.007Z,59.14
2023-02-07T13:26:06.232Z,58.91
2023-02-07T13:29:20.509Z,58.64
2023-02-07T13:32:31.609Z,58.55
2023-02-07T13:35:43.516Z,59.00
2023-02-07T13:39:07.084Z,58.99
2023-02-07T13:43:10.684Z,59.25
2023-02-07T13:47:02.839Z,59.43
2023-02-07T13:54:26.137Z,59.32
2023-02-07T13:57:54.213Z,59.28
2023-02-07T14:04:56.836Z,59.57
2023-02-07T14:08:08.711Z,59.32
2023-02-07T14:18:47.953Z,59.37
2023-02-07T14:22:28.276Z,59.02
2023-02-07T14:25:49.969Z,58.23
2023-02-07T14:33:37.447Z,57.91
2023-02-07T14:36:48.898Z,57.48
2023-02-07T14:44:13.747Z,56.87
2023-02-07T14:47:34.946Z,56.89
2023-02-07T14:50:43.254Z,56.88
2023-02-07T14:53:54.096Z,56.91
2023-02-07T14:57:14.330Z,56.92
2023-02-07T15:04:27.972Z,57.38
2023-02-07T15:07:37.092Z,57.11
2023-02-07T15:14:08.730Z,56.88
2023-02-07T15:17:44.000Z,57.22
2023-02-07T15:20:58.755Z,57.39
2023-02-07T15:24:25.624Z,57.32
2023-02-07T15:27:32.716Z,57.31
2023-02-07T15:38:29.309Z,57.84
2023-02-07T15:41:40.228Z,57.71
2023-02-07T15:53:41.472Z,58.41
2023-02-07T15:56:52.553Z,58.15
2023-02-07T16:00:06.760Z,58.11
2023-02-07T16:03:34.528Z,58.86
2023-02-07T16:06:58.901Z,58.61
2023-02-07T16:10:24.929Z,58.83
2023-02-07T16:13:40.817Z,58.86
2023-02-07T16:16:57.320Z,59.03
2023-02-07T16:20:08.313Z,59.51
2023-02-07T16:23:19.791Z,59.62
2023-02-07T16:26:32.513Z,59.58
2023-02-07T16:29:45.239Z,59.38
2023-02-07T16:32:56.302Z,59.65
2023-02-07T16:36:08.406Z,59.31
2023-02-07T16:39:19.314Z,59.48
2023-02-07T16:42:30.174Z,59.36
2023-02-07T16:45:41.974Z,59.62
2023-02-07T16:48:53.554Z,59.64
2023-02-07T16:52:03.710Z,59.52
2023-02-07T16:55:17.550Z,59.64
2023-02-07T16:58:27.350Z,60.02
2023-02-07T17:01:31.408Z,60.11
2023-02-07T17:04:34.509Z,60.05
2023-02-07T17:07:38.189Z,60.07
2023-02-07T17:10:48.205Z,59.82
2023-02-07T17:13:57.312Z,60.26
2023-02-07T17:17:01.538Z,60.14
2023-02-07T17:20:23.650Z,59.93
2023-02-07T17:23:29.485Z,59.84
2023-02-07T17:26:34.104Z,59.99
2023-02-07T17:29:38.482Z,59.84
2023-02-07T17:32:42.524Z,59.67
2023-02-07T17:35:46.500Z,59.39
2023-02-07T17:38:49.832Z,59.29
2023-02-07T17:41:54.306Z,59.25
2023-02-07T17:44:58.484Z,59.32
2023-02-07T17:48:02.922Z,58.94
2023-02-07T17:51:07.128Z,58.93
2023-02-07T17:54:10.064Z,58.85
2023-02-07T17:57:14.550Z,58.31
2023-02-07T18:00:30.321Z,58.66
2023-02-07T18:03:33.999Z,58.71
2023-02-07T18:06:37.878Z,58.57
2023-02-07T18:09:41.554Z,58.42
2023-02-07T18:12:46.407Z,58.29
2023-02-07T18:15:50.333Z,58.00
2023-02-07T18:18:56.683Z,57.96
2023-02-07T18:22:01.137Z,58.11
2023-02-07T18:25:04.861Z,57.96
2023-02-07T18:28:10.313Z,58.05
2023-02-07T18:31:18.429Z,58.43
2023-02-07T18:34:22.253Z,57.64
2023-02-07T18:37:27.288Z,57.71
2023-02-07T18:40:30.957Z,58.75
2023-02-07T18:43:35.355Z,58.29
2023-02-07T18:46:40.689Z,58.54
2023-02-07T18:49:44.763Z,58.95
2023-02-07T18:52:48.838Z,58.68
2023-02-07T18:55:53.661Z,58.78
2023-02-07T18:58:57.485Z,58.85
2023-02-07T19:02:02.877Z,59.13
2023-02-07T19:05:08.676Z,59.45
2023-02-07T19:08:12.383Z,59.48
2023-02-07T19:11:16.560Z,59.99
2023-02-07T19:14:23.812Z,60.15
2023-02-07T19:17:27.797Z,59.89
2023-02-07T19:20:31.964Z,59.37
2023-02-07T19:23:36.557Z,60.72
2023-02-07T19:26:40.439Z,61.07
2023-02-07T19:29:45.212Z,61.87
2023-02-07T19:32:51.377Z,62.20
2023-02-07T19:35:55.445Z,62.44
2023-02-07T19:39:00.041Z,62.49
2023-02-07T19:42:03.639Z,62.47
2023-02-07T19:45:07.321Z,61.93
2023-02-07T19:48:10.177Z,61.71
2023-02-07T19:51:20.715Z,61.86
2023-02-07T19:54:23.654Z,62.05
2023-02-07T19:57:26.890Z,62.14
2023-02-07T20:00:31.095Z,61.73
2023-02-07T20:03:35.101Z,61.90
2023-02-07T20:06:38.858Z,63.19
2023-02-07T20:09:45.005Z,63.29
2023-02-07T20:12:49.407Z,63.34
2023-02-07T20:15:52.732Z,63.70
2023-02-07T20:18:56.731Z,63.94
2023-02-07T20:22:00.709Z,63.85
2023-02-07T20:25:04.608Z,63.92
2023-02-07T20:28:09.787Z,63.89
2023-02-07T20:31:17.207Z,63.99
2023-02-07T20:34:20.698Z,63.76
2023-02-07T20:37:24.065Z,63.79
2023-02-07T20:40:27.022Z,63.69
2023-02-07T20:43:30.340Z,63.75
2023-02-07T20:46:35.479Z,64.00
2023-02-07T20:49:39.823Z,63.95
2023-02-07T20:52:42.829Z,63.36
2023-02-07T20:55:46.858Z,63.35
2023-02-07T20:58:50.538Z,64.32
2023-02-07T21:01:55.719Z,64.51
2023-02-07T21:04:59.473Z,64.64
2023-02-07T21:08:04.369Z,64.12
2023-02-07T21:11:09.094Z,64.29
2023-02-07T21:14:20.997Z,64.57
2023-02-07T21:17:24.449Z,66.02
2023-02-07T21:20:28.741Z,65.10
2023-02-07T21:23:32.372Z,65.77
2023-02-07T21:26:36.204Z,65.64
2023-02-07T21:29:39.865Z,65.90
2023-02-07T21:32:43.912Z,65.82
2023-02-07T21:35:50.127Z,66.40
2023-02-07T21:38:55.368Z,66.58
2023-02-07T21:42:00.557Z,65.89
2023-02-07T21:45:05.202Z,66.47
2023-02-07T21:48:08.920Z,66.62
2023-02-07T21:51:16.024Z,66.28
2023-02-07T21:54:19.529Z,66.62
2023-02-07T21:57:23.774Z,66.85
2023-02-07T22:00:27.724Z,67.74
2023-02-07T22:03:42.337Z,67.09
2023-02-07T22:06:47.886Z,66.94
2023-02-07T22:09:52.666Z,66.25
2023-02-07T22:12:56.430Z,67.08
2023-02-07T22:16:00.735Z,67.57
2023-02-07T22:19:05.526Z,61.63
2023-02-07T22:22:08.863Z,60.33
2023-02-07T22:25:11.868Z,60.34
2023-02-07T22:28:15.249Z,61.72
2023-02-07T22:31:27.018Z,62.92
2023-02-07T22:34:31.469Z,63.10
2023-02-07T22:37:34.694Z,62.85
2023-02-07T22:40:40.274Z,63.11
2023-02-07T22:43:44.181Z,63.68
2023-02-07T22:46:48.217Z,64.05
2023-02-07T22:49:51.887Z,64.14
2023-02-07T22:52:55.554Z,64.84
2023-02-07T22:56:02.342Z,65.52
2023-02-07T22:59:06.758Z,64.26
2023-02-07T23:02:10.867Z,63.47
2023-02-07T23:05:14.527Z,62.99
2023-02-07T23:08:18.604Z,62.68
2023-02-07T23:11:24.306Z,62.79
2023-02-07T23:14:28.030Z,63.14
2023-02-07T23:17:31.826Z,62.29
2023-02-07T23:20:35.503Z,61.33
2023-02-07T23:23:39.726Z,60.62
2023-02-07T23:26:43.815Z,60.95
2023-02-07T23:29:47.071Z,62.08
2023-02-07T23:32:50.456Z,61.92
2023-02-07T23:35:54.269Z,62.32
2023-02-07T23:38:57.668Z,62.37
2023-02-07T23:42:00.715Z,62.51
2023-02-07T23:45:08.549Z,61.23
2023-02-07T23:48:11.653Z,61.03
2023-02-07T23:51:16.528Z,61.97
2023-02-07T23:54:20.183Z,61.52
2023-02-07T23:57:24.698Z,62.39
